Aviation Digital Data Service (ADDS)

Output produced by METARs form (1355 UTC 01 November 2014)
found at http://aviationweather.gov/adds/metars/
 
KJFK 011120Z 0112/0218 03020G30KT P6SM -RA SCT025 OVC050 
     TEMPO 0112/0116 5SM -RA OVC025 
     FM011600 36022G32KT 5SM -RA BR OVC015 
     FM012300 35022G32KT P6SM OVC025 
     FM020200 34025G35KT P6SM BKN040